Detroit, MI (48201)

5:12 AM EST on January 24, 2017 (GMT -0500)
Lafayette Park | | Change Station

Elev 0 ft 42.34 °N, 83.04 °W | Updated 5 seconds ago

Overcast
Overcast
38.7 °F
Feels Like 39 °F
N
0.6
Wind Variable Wind from West
Gusts 1.9 mph

Today
High -- | Low -- °F
--% Chance of Precip.
Yesterday
High -- | Low -- °F
Precip. -- in
Pressure 29.73 in
Visibility 6.0 miles
Clouds Overcast 900 ft
Windchill 39 °F
Dew Point 37 °F
Humidity 95%
Rainfall 0.10 in
Snow Depth Not available.
7:52 AM 5:36 PM
Waning Crescent, 12% visible
METAR KDET 240953Z 05003KT 6SM BR OVC009 03/02 A2972 RMK AO2 SLP068 T00330022
Pressure 29.73 in
Visibility 6.0 miles
Clouds Overcast 900 ft
Windchill 39 °F
Dew Point 37 °F
Humidity 95%
Rainfall 0.10 in
Snow Depth Not available.
7:52 AM 5:36 PM
Waning Crescent, 12% visible
METAR KDET 240953Z 05003KT 6SM BR OVC009 03/02 A2972 RMK AO2 SLP068 T00330022

Get Your Daily Forecast Email!

Thanks for signing up!

Be on the lookout for a verification email in your inbox.

You'll start receiving the daily forecast at 8 AM.

×

10-Day Weather Forecast

Almanac

Astronomy

Jan. 24, 2017 Rise Set
Actual Time
Civil Twilight
Nautical Twilight
Astronomical Twilight
Moon
Length of Visible Light
Length of Day
Tomorrow will be .
, % of the Moon is Illuminated

Today's Extremes

State Highs State Lows

Community

WunderPhotos

Upload Photos

1,962,540 photos uploaded!

WunderBlog® & News

Nearby

Air Quality

  Air Quality AQ Index Pollutant
Not available.

Snow Depth

Station Depth Elevation

Earthquake Activity

City Distance Mag. Time & Date
Minimum magnitude displayed is 2.5.

Coastal Water Temperatures

Place Temperature

Stations

Nearby Weather Stations

Station Location Temp. Windchill Dew Point Humidity Wind Precip. Elev Updated Type
                   

Watches & Warnings

There are currently no watches in effect.